Time;durP1;ratioP1;P1;durP2;ratioP2;P2;SDS_P1;SDS_P2;PMS_P1;PMS_P2;Temp;Humidity;BMP_temperature;BMP_pressure;BME280_temperature;BME280_humidity;BME280_pressure;Samples;Min_cycle;Max_cycle;Signal;HPM_P1;HPM_P2
2022/03/12 13:59:12;;;;;;;3.30;0.93;;;;;;;18.21;39.05;101341.53;5098144;27;20931;-72
2022/03/12 14:01:41;;;;;;;2.53;0.98;;;;;;;18.70;39.85;101338.19;5071965;28;20124;-73
2022/03/12 14:04:16;;;;;;;2.78;1.10;;;;;;;18.69;38.91;101331.19;5073837;28;20112;-73
2022/03/12 14:06:44;;;;;;;2.20;1.10;;;;;;;18.79;39.21;101331.91;5077844;28;20036;-73
2022/03/12 14:09:12;;;;;;;5.93;1.10;;;;;;;19.09;37.66;101326.03;5081065;28;20040;-73
2022/03/12 14:11:49;;;;;;;8.82;1.05;;;;;;;19.03;39.58;101340.00;5071432;28;20072;-72
2022/03/12 14:14:19;;;;;;;2.20;1.00;;;;;;;19.00;38.36;101335.03;5074207;28;20058;-73
2022/03/12 14:16:56;;;;;;;5.22;1.27;;;;;;;19.43;39.55;101331.16;5071776;28;20131;-75
2022/03/12 14:19:24;;;;;;;1.80;0.95;;;;;;;19.32;37.61;101335.97;5070192;28;20048;-74
2022/03/12 14:21:57;;;;;;;1.95;0.65;;;;;;;19.05;37.78;101333.50;5073642;28;20070;-72
2022/03/12 14:24:28;;;;;;;3.38;1.10;;;;;;;18.55;39.47;101339.78;5071510;28;20036;-72
2022/03/12 14:26:59;;;;;;;2.50;0.90;;;;;;;17.93;40.37;101339.13;5071748;28;20044;-72
2022/03/12 14:29:28;;;;;;;2.90;1.13;;;;;;;17.94;40.48;101332.81;5072611;28;20052;-71
2022/03/12 14:31:56;;;;;;;4.03;1.10;;;;;;;18.28;40.36;101337.25;5078269;28;20052;-73
2022/03/12 14:34:25;;;;;;;3.45;0.95;;;;;;;18.19;38.72;101332.84;5084975;28;20124;-73
2022/03/12 14:36:53;;;;;;;4.35;1.15;;;;;;;18.19;38.63;101335.50;5073170;28;20033;-73
2022/03/12 14:39:21;;;;;;;1.55;0.80;;;;;;;18.21;39.20;101328.25;5082121;28;20492;-73
2022/03/12 14:41:48;;;;;;;1.30;0.80;;;;;;;18.01;39.77;101316.09;5068350;28;20044;-72
2022/03/12 14:44:16;;;;;;;2.88;1.00;;;;;;;18.03;39.86;101319.41;5077706;28;20028;-72
2022/03/12 14:46:47;;;;;;;1.77;1.00;;;;;;;18.09;40.64;101326.81;5088538;28;20064;-71
2022/03/12 14:49:37;;;;;;;1.40;0.88;;;;;;;17.69;40.55;101328.28;5083464;28;20040;-72
2022/03/12 14:52:06;;;;;;;4.60;0.85;;;;;;;17.24;41.35;101331.94;5082855;28;20048;-73
2022/03/12 14:54:34;;;;;;;3.53;1.20;;;;;;;17.13;41.99;101327.66;5085024;28;20038;-72
2022/03/12 14:57:02;;;;;;;3.40;1.23;;;;;;;16.96;43.23;101319.63;5078122;28;20059;-75
2022/03/12 14:59:30;;;;;;;4.00;1.50;;;;;;;16.87;43.18;101332.97;5083604;28;20062;-71
2022/03/12 15:02:13;;;;;;;2.63;1.17;;;;;;;16.66;43.17;101330.53;5082361;28;20041;-70
2022/03/12 15:04:50;;;;;;;6.10;1.73;;;;;;;16.57;44.15;101328.75;5072718;28;20045;-73
2022/03/12 15:07:22;;;;;;;2.70;1.30;;;;;;;16.97;43.35;101316.88;5072446;28;20064;-73
2022/03/12 15:09:51;;;;;;;1.95;1.20;;;;;;;17.36;43.54;101315.66;5057820;28;20045;-73
2022/03/12 15:12:19;;;;;;;3.70;1.10;;;;;;;18.05;41.50;101304.16;5060213;28;20060;-72
2022/03/12 15:14:46;;;;;;;3.65;1.48;;;;;;;18.52;39.74;101308.16;5054283;28;20075;-72
2022/03/12 15:17:25;;;;;;;4.10;1.38;;;;;;;18.13;41.01;101301.56;5053944;28;20044;-71
2022/03/12 15:20:01;;;;;;;8.57;1.77;;;;;;;17.81;42.26;101301.31;5053806;28;20048;-73
2022/03/12 15:22:28;;;;;;;3.22;1.30;;;;;;;17.20;42.68;101298.69;5060035;28;20496;-72
2022/03/12 15:24:57;;;;;;;3.33;1.50;;;;;;;16.85;43.99;101303.09;5058956;28;20052;-71
2022/03/12 15:27:28;;;;;;;3.65;1.42;;;;;;;16.63;44.52;101304.28;5060850;28;20040;-73
2022/03/12 15:29:59;;;;;;;3.50;1.42;;;;;;;16.59;43.90;101300.28;5058739;28;20044;-74
2022/03/12 15:32:28;;;;;;;3.70;1.30;;;;;;;16.35;45.80;101299.94;5056997;28;20125;-72
2022/03/12 15:34:55;;;;;;;2.75;1.50;;;;;;;16.27;45.43;101305.09;5060505;28;20103;-72
2022/03/12 15:37:36;;;;;;;3.75;1.60;;;;;;;16.09;44.87;101298.00;5057786;28;20491;-71
2022/03/12 15:40:07;;;;;;;3.97;1.40;;;;;;;16.09;46.19;101301.50;5072582;28;20149;-71
2022/03/12 15:42:40;;;;;;;2.28;1.45;;;;;;;15.95;45.90;101300.28;5064289;28;20070;-73
2022/03/12 15:45:08;;;;;;;;;;;;;;;16.05;47.02;101302.75;5055463;28;20123;-73
2022/03/12 15:47:36;;;;;;;2.90;1.58;;;;;;;16.09;46.75;101300.66;5058253;28;19930;-72
2022/03/12 15:50:04;;;;;;;3.08;1.17;;;;;;;16.11;46.43;101296.06;5058792;28;20086;-72
2022/03/12 15:52:31;;;;;;;4.70;1.75;;;;;;;16.07;47.37;101308.78;5065426;28;20051;-73
2022/03/12 15:54:58;;;;;;;3.88;1.60;;;;;;;16.11;46.43;101296.91;5059321;28;20041;-71
2022/03/12 15:57:24;;;;;;;5.57;1.63;;;;;;;15.96;46.76;101296.66;5055673;28;20071;-70
2022/03/12 15:59:51;;;;;;;3.70;1.73;;;;;;;15.82;46.90;101289.13;5058882;28;20440;-72
2022/03/12 16:02:18;;;;;;;4.00;1.90;;;;;;;15.72;47.43;101290.94;5061108;28;20041;-74
2022/03/12 16:04:46;;;;;;;4.45;1.50;;;;;;;15.70;47.18;101284.97;5058414;28;20048;-73
2022/03/12 16:07:13;;;;;;;4.55;2.05;;;;;;;15.68;49.00;101289.56;5053948;28;20047;-73
2022/03/12 16:09:40;;;;;;;3.78;1.95;;;;;;;15.72;47.53;101285.66;5053415;28;20059;-70
2022/03/12 16:12:08;;;;;;;3.03;1.70;;;;;;;15.82;47.36;101278.53;5061214;28;20047;-72
2022/03/12 16:14:35;;;;;;;3.20;1.80;;;;;;;15.83;47.57;101278.41;5058924;28;20055;-68
2022/03/12 16:17:02;;;;;;;3.22;1.80;;;;;;;15.81;47.49;101271.56;5064059;28;20106;-72
2022/03/12 16:19:29;;;;;;;3.22;1.40;;;;;;;15.69;48.32;101268.22;5076842;28;20044;-71
2022/03/12 16:21:57;;;;;;;2.78;1.77;;;;;;;15.43;47.26;101261.81;5057909;28;20044;-71
2022/03/12 16:24:24;;;;;;;7.80;1.92;;;;;;;15.27;47.41;101265.19;5055917;28;20041;-71
2022/03/12 16:26:50;;;;;;;3.03;1.55;;;;;;;15.27;47.50;101260.72;5059169;28;20040;-72
2022/03/12 16:29:17;;;;;;;2.10;1.30;;;;;;;15.21;48.09;101269.19;5057604;28;20064;-73
2022/03/12 16:31:44;;;;;;;3.75;1.60;;;;;;;15.19;48.12;101262.34;5061684;28;20045;-76
2022/03/12 16:34:11;;;;;;;15.52;1.98;;;;;;;15.11;48.23;101257.75;5055748;28;20045;-71
2022/03/12 16:36:39;;;;;;;3.13;1.40;;;;;;;14.98;49.24;101251.03;5052299;28;20094;-71
2022/03/12 16:39:08;;;;;;;3.85;1.60;;;;;;;14.81;49.98;101249.91;5056092;28;20131;-72
2022/03/12 16:41:40;;;;;;;4.70;1.83;;;;;;;14.76;49.59;101253.91;5056482;28;20040;-72
2022/03/12 16:44:09;;;;;;;4.07;1.52;;;;;;;14.61;49.08;101248.16;5059924;28;20580;-70
2022/03/12 16:46:38;;;;;;;2.88;1.75;;;;;;;14.49;49.62;101251.88;5061422;28;20065;-70
2022/03/12 16:49:14;;;;;;;2.70;1.90;;;;;;;14.43;50.10;101251.59;5081802;28;20051;-71
2022/03/12 16:51:42;;;;;;;6.13;3.03;;;;;;;14.39;50.91;101241.41;5070719;28;20045;-71
2022/03/12 16:54:10;;;;;;;5.22;2.40;;;;;;;14.35;51.20;101247.91;5061062;28;20048;-72
2022/03/12 16:56:36;;;;;;;4.10;2.05;;;;;;;14.32;51.69;101242.91;5054342;28;20504;-73
2022/03/12 16:59:04;;;;;;;2.95;1.75;;;;;;;14.19;51.27;101239.63;5053654;28;20151;-71
2022/03/12 17:01:31;;;;;;;4.50;2.63;;;;;;;14.14;52.37;101240.03;5075301;28;20130;-72
2022/03/12 17:03:58;;;;;;;4.07;2.22;;;;;;;14.06;51.39;101241.63;5054387;28;20094;-72
2022/03/12 17:06:27;;;;;;;4.20;2.28;;;;;;;13.95;52.75;101239.88;5053447;28;20070;-72
2022/03/12 17:08:54;;;;;;;4.63;2.33;;;;;;;13.82;52.95;101249.84;5056976;28;20029;-73
2022/03/12 17:11:23;;;;;;;3.92;2.13;;;;;;;13.79;53.82;101254.53;5065043;28;20045;-73
2022/03/12 17:13:51;;;;;;;3.88;1.77;;;;;;;13.64;53.65;101246.09;5059119;28;20048;-73
2022/03/12 17:16:22;;;;;;;3.25;2.30;;;;;;;13.57;54.44;101246.75;5066543;28;20032;-71
2022/03/12 17:18:49;;;;;;;4.25;2.67;;;;;;;13.42;54.05;101258.56;5058628;28;20148;-72
2022/03/12 17:21:16;;;;;;;5.90;2.70;;;;;;;13.37;54.76;101255.47;5057226;28;20056;-72
2022/03/12 17:23:44;;;;;;;4.40;2.15;;;;;;;13.36;54.54;101260.88;5053805;28;20051;-71
2022/03/12 17:26:13;;;;;;;6.40;2.90;;;;;;;13.26;54.35;101258.13;5055066;28;20072;-70
2022/03/12 17:28:44;;;;;;;3.92;2.20;;;;;;;13.16;55.08;101264.31;5055091;28;20052;-72
2022/03/12 17:31:12;;;;;;;5.05;2.13;;;;;;;13.06;55.60;101263.38;5053520;28;20044;-71
2022/03/12 17:33:41;;;;;;;5.10;2.30;;;;;;;13.03;55.92;101259.19;5055781;28;20087;-73
2022/03/12 17:36:09;;;;;;;6.55;2.30;;;;;;;13.02;56.04;101267.22;5048919;28;20057;-73
2022/03/12 17:38:35;;;;;;;4.65;2.05;;;;;;;12.96;56.15;101265.91;5057224;28;20044;-71
2022/03/12 17:41:07;;;;;;;6.35;2.83;;;;;;;12.89;55.54;101266.53;5052445;28;20090;-73
2022/03/12 17:43:35;;;;;;;4.45;2.58;;;;;;;12.70;56.76;101268.09;5057210;28;20041;-72
2022/03/12 17:46:05;;;;;;;5.13;2.85;;;;;;;12.65;56.77;101267.63;5053477;28;20052;-72
2022/03/12 17:48:32;;;;;;;4.10;2.45;;;;;;;12.56;56.94;101268.34;5057247;28;20063;-72
2022/03/12 17:50:59;;;;;;;3.95;2.40;;;;;;;12.50;57.23;101263.56;5057601;28;20064;-73
2022/03/12 17:53:27;;;;;;;5.32;2.63;;;;;;;12.36;57.87;101264.66;5064131;28;20059;-71
2022/03/12 17:55:55;;;;;;;5.80;2.42;;;;;;;12.41;56.92;101269.56;5063446;28;20147;-73
2022/03/12 17:58:21;;;;;;;4.35;2.80;;;;;;;12.38;57.29;101269.78;5064467;28;20056;-73
2022/03/12 18:00:48;;;;;;;6.15;2.70;;;;;;;12.30;57.47;101265.13;5054977;28;20046;-72
2022/03/12 18:03:16;;;;;;;5.13;2.88;;;;;;;12.25;57.14;101269.06;5059983;28;20075;-71
2022/03/12 18:05:44;;;;;;;5.22;3.05;;;;;;;12.18;57.34;101268.69;5072945;28;20079;-70
2022/03/12 18:08:13;;;;;;;8.48;2.70;;;;;;;12.24;57.43;101270.84;5053880;28;20037;-71
2022/03/12 18:10:40;;;;;;;6.72;3.42;;;;;;;12.17;57.49;101274.91;5055473;28;20045;-72
2022/03/12 18:13:10;;;;;;;5.57;2.97;;;;;;;12.07;57.66;101275.75;5061031;28;20123;-70
2022/03/12 18:15:37;;;;;;;4.78;3.03;;;;;;;12.16;56.70;101277.69;5052180;28;20072;-70
2022/03/12 18:18:06;;;;;;;5.00;3.42;;;;;;;12.09;56.84;101279.13;5050674;28;20051;-72
2022/03/12 18:20:34;;;;;;;6.00;3.30;;;;;;;12.14;56.49;101283.09;5054109;28;20040;-70
2022/03/12 18:23:01;;;;;;;6.50;3.67;;;;;;;12.02;56.62;101278.75;5055690;28;20045;-73
2022/03/12 18:25:29;;;;;;;5.75;3.08;;;;;;;12.13;57.05;101280.53;5058686;28;20701;-70
